MDT,Max TemperatureF,Mean TemperatureF,Min TemperatureF,Max Dew PointF,MeanDew PointF,Min DewpointF,Max Humidity, Mean Humidity, Min Humidity, Max Sea Level PressureIn, Mean Sea Level PressureIn, Min Sea Level PressureIn, Max VisibilityMiles, Mean VisibilityMiles, Min VisibilityMiles, Max Wind SpeedMPH, Mean Wind SpeedMPH, Max Gust SpeedMPH,PrecipitationIn, CloudCover, Events, WindDirDegrees
2013-10-1,69,52,35,37,33,25,82,51,19,30.12,29.90,29.82,10,10,10,25,9,38,0.00,0,,235
2013-10-2,64,52,40,40,36,31,85,58,30,29.98,29.88,29.73,10,9,2,16,7,24,T,6,Rain-Thunderstorm,1
2013-10-3,42,38,34,38,28,18,100,70,40,30.02,29.85,29.65,10,10,9,23,12,33,0.01,5,Rain,261
2013-10-4,42,34,25,27,25,23,100,75,50,30.43,30.20,30.01,10,6,0,8,4,,T,7,Fog-Snow,301
2013-10-5,52,38,23,28,23,18,92,61,30,30.49,30.44,30.36,10,10,10,16,8,20,0.00,0,,247
2013-10-6,66,48,30,27,25,22,78,49,19,30.45,30.32,30.17,10,10,10,12,7,21,0.00,0,,221
2013-10-7,71,55,38,26,21,17,49,32,15,30.14,29.99,29.79,10,10,10,24,11,35,0.00,0,,204
2013-10-8,60,50,40,23,21,17,48,34,19,29.92,29.75,29.70,10,10,10,20,13,33,0.00,1,,243
2013-10-9,61,49,37,31,26,22,64,44,24,29.85,29.71,29.66,10,10,10,17,9,24,0.00,5,,72
2013-10-10,50,43,36,32,31,27,76,61,46,29.88,29.71,29.57,10,9,3,22,8,30,T,6,Rain-Snow,243
2013-10-11,47,39,31,32,28,22,100,73,45,30.09,29.99,29.80,10,10,4,17,13,24,0.01,4,Snow,244
2013-10-12,55,42,28,49,29,20,89,62,35,30.11,30.01,29.91,10,10,8,15,6,24,0.00,3,Rain,156
2013-10-13,48,42,35,39,35,31,89,75,61,30.05,29.96,29.86,10,10,4,12,9,25,0.04,7,Rain-Thunderstorm,142
2013-10-14,42,38,34,34,30,24,100,76,51,30.23,30.11,29.96,10,10,8,16,10,18,T,8,Rain-Snow,310
2013-10-15,40,34,27,28,24,20,92,70,48,30.30,30.25,30.21,10,10,9,17,13,24,T,6,Snow,75
2013-10-16,47,35,22,24,21,18,88,64,40,30.28,30.21,30.14,10,10,10,16,9,22,0.00,0,,223
2013-10-17,49,38,27,25,21,18,75,55,34,30.14,30.09,30.00,10,10,10,17,11,30,0.00,4,,251
2013-10-18,49,40,30,25,21,18,69,50,31,30.26,30.19,30.12,10,10,10,12,4,18,0.00,2,,287
2013-10-19,55,40,25,24,21,17,81,54,26,30.27,30.17,30.05,10,10,10,21,13,28,0.00,0,,231
2013-10-20,55,44,33,24,21,16,51,39,27,30.07,30.01,29.93,10,10,10,13,8,18,0.00,1,,252
2013-10-21,57,43,29,25,23,20,69,48,27,30.24,30.17,30.07,10,10,10,10,4,17,0.00,0,,205
2013-10-22,63,47,31,26,24,21,69,46,22,30.28,30.18,30.11,10,10,10,8,4,,0.00,0,,200
2013-10-23,64,49,34,26,21,17,61,39,17,30.18,30.10,30.03,10,10,10,8,3,,0.00,0,,68
2013-10-24,63,49,34,26,21,20,61,40,19,30.14,30.09,30.04,10,10,10,7,4,,0.00,0,,107
2013-10-25,61,49,37,24,22,19,52,38,23,30.22,30.15,30.09,10,10,10,8,5,,0.00,0,,242
2013-10-26,61,47,32,26,21,17,56,38,19,30.32,30.24,30.15,10,10,10,8,5,18,0.00,0,,188
2013-10-27,61,48,34,29,19,14,51,34,17,30.12,29.87,29.60,10,10,10,25,12,36,0.00,1,,200
2013-10-28,58,46,34,34,31,18,92,58,24,29.82,29.67,29.38,10,5,0,25,15,36,0.09,6,Fog-Rain-Snow,194
2013-10-29,35,32,29,30,29,25,100,88,75,29.96,29.84,29.69,10,4,0,15,9,,0.41,7,Fog-Snow,170
2013-10-30,33,28,24,30,27,23,100,91,82,30.07,29.98,29.93,10,5,0,17,11,21,T,8,Fog-Snow,250
2013-10-31,37,32,28,30,27,24,92,78,64,30.19,30.12,30.06,10,9,1,25,14,30,0.01,7,Snow,236